createdAt,value
2019-03-11T00:00:00.557Z,3.69
2019-03-11T00:01:00.549Z,3.65
2019-03-11T00:02:00.540Z,3.63
2019-03-11T00:03:00.531Z,3.76
2019-03-11T00:04:00.521Z,3.87
2019-03-11T00:05:00.513Z,3.80
2019-03-11T00:06:00.505Z,3.80
2019-03-11T00:07:00.496Z,3.94
2019-03-11T00:08:00.527Z,3.95
2019-03-11T00:09:00.482Z,3.87
2019-03-11T00:10:00.516Z,3.99
2019-03-11T00:11:00.462Z,4.04
2019-03-11T00:12:00.454Z,3.98
2019-03-11T00:13:00.449Z,3.92
2019-03-11T00:14:00.436Z,3.99
2019-03-11T00:15:00.430Z,4.02
2019-03-11T00:16:00.457Z,4.17
2019-03-11T00:17:00.411Z,4.17
2019-03-11T00:18:00.403Z,4.16
2019-03-11T00:19:00.394Z,4.22
2019-03-11T00:20:00.465Z,4.22
2019-03-11T00:21:00.376Z,4.23
2019-03-11T00:22:00.379Z,4.28
2019-03-11T00:23:00.358Z,4.28
2019-03-11T00:24:00.354Z,4.19
2019-03-11T00:25:00.344Z,4.28
2019-03-11T00:26:00.380Z,4.44
2019-03-11T00:27:00.326Z,4.37
2019-03-11T00:28:00.317Z,4.45
2019-03-11T00:29:00.309Z,4.44
2019-03-11T00:30:00.350Z,4.41
2019-03-11T00:31:00.294Z,4.35
2019-03-11T00:32:00.283Z,4.40
2019-03-11T00:33:00.276Z,4.41
2019-03-11T00:34:00.268Z,4.38
2019-03-11T00:35:00.332Z,4.37
2019-03-11T00:36:00.251Z,4.34
2019-03-11T00:37:00.242Z,4.40
2019-03-11T00:38:00.237Z,4.35
2019-03-11T00:39:00.226Z,4.38
2019-03-11T00:40:00.332Z,4.38
2019-03-11T00:41:00.210Z,4.38
2019-03-11T00:42:00.200Z,4.41
2019-03-11T00:43:00.191Z,4.31
2019-03-11T00:44:00.184Z,4.37
2019-03-11T00:45:00.327Z,4.28
2019-03-11T00:46:00.170Z,4.19
2019-03-11T00:47:00.160Z,4.04
2019-03-11T00:48:02.350Z,4.02
2019-03-11T00:49:00.142Z,4.01
2019-03-11T00:50:00.322Z,3.98
2019-03-11T00:51:00.125Z,3.84
2019-03-11T00:52:00.119Z,3.80
2019-03-11T00:53:00.111Z,3.88
2019-03-11T00:54:00.100Z,3.81
2019-03-11T00:55:00.172Z,3.68
2019-03-11T00:56:00.085Z,3.68
2019-03-11T00:57:00.075Z,3.55
2019-03-11T00:58:00.067Z,3.51
2019-03-11T00:59:00.059Z,3.50
2019-03-11T01:00:00.050Z,3.44
2019-03-11T01:01:00.042Z,3.34
2019-03-11T01:02:00.034Z,3.48
2019-03-11T01:03:00.023Z,3.36
2019-03-11T01:04:00.015Z,3.37
2019-03-11T01:05:00.007Z,3.32
2019-03-11T01:05:59.999Z,3.34
2019-03-11T01:06:59.991Z,3.34
2019-03-11T01:07:59.982Z,3.34
2019-03-11T01:08:59.974Z,3.40
2019-03-11T01:09:59.965Z,3.31
2019-03-11T01:10:59.956Z,3.34
2019-03-11T01:11:59.947Z,3.32
2019-03-11T01:12:59.941Z,3.32
2019-03-11T01:13:59.932Z,3.31
2019-03-11T01:14:59.922Z,3.34
2019-03-11T01:15:59.914Z,3.29
2019-03-11T01:16:59.904Z,3.25
2019-03-11T01:17:59.898Z,3.19
2019-03-11T01:18:59.888Z,3.22
2019-03-11T01:19:59.879Z,3.25
2019-03-11T01:20:59.871Z,3.23
2019-03-11T01:21:59.866Z,3.18
2019-03-11T01:22:59.852Z,3.25
2019-03-11T01:23:59.845Z,3.22
2019-03-11T01:24:59.836Z,3.22
2019-03-11T01:25:59.828Z,3.18
2019-03-11T01:26:59.819Z,3.26
2019-03-11T01:27:59.810Z,3.28
2019-03-11T01:28:59.802Z,3.21
2019-03-11T01:29:59.793Z,3.31
2019-03-11T01:30:59.784Z,3.31
2019-03-11T01:31:59.779Z,3.32
2019-03-11T01:32:59.768Z,3.37
2019-03-11T01:33:59.760Z,3.45
2019-03-11T01:34:59.749Z,3.55
2019-03-11T01:35:59.742Z,3.58
2019-03-11T01:36:59.733Z,3.59
2019-03-11T01:37:59.724Z,3.58
2019-03-11T01:38:59.715Z,3.63
2019-03-11T01:39:59.708Z,3.66
2019-03-11T01:40:59.698Z,3.73
2019-03-11T01:41:59.690Z,3.76
2019-03-11T01:42:59.680Z,3.77
2019-03-11T01:43:59.672Z,3.87
2019-03-11T01:44:59.665Z,3.81
2019-03-11T01:45:59.657Z,3.91
2019-03-11T01:47:52.982Z,3.98
2019-03-11T01:48:52.975Z,4.05
2019-03-11T01:49:52.965Z,4.10
2019-03-11T01:50:52.955Z,4.19
2019-03-11T01:52:36.265Z,4.20
2019-03-11T01:53:36.256Z,4.19
2019-03-11T01:54:36.248Z,4.26
2019-03-11T01:55:36.240Z,4.30
2019-03-11T01:56:36.230Z,4.19
2019-03-11T01:57:36.222Z,4.24
2019-03-11T01:58:36.213Z,4.19
2019-03-11T01:59:36.204Z,4.22
2019-03-11T02:00:36.196Z,4.22
2019-03-11T02:01:36.189Z,4.24
2019-03-11T02:02:36.180Z,4.28
2019-03-11T02:03:36.171Z,4.26
2019-03-11T02:04:36.163Z,4.22
2019-03-11T02:05:36.155Z,4.20
2019-03-11T02:06:36.145Z,4.20
2019-03-11T02:07:36.138Z,4.28
2019-03-11T02:08:36.129Z,4.23
2019-03-11T02:09:36.121Z,4.19
2019-03-11T02:10:36.112Z,4.22
2019-03-11T02:11:36.305Z,4.17
2019-03-11T02:12:36.095Z,4.10
2019-03-11T02:13:36.087Z,4.04
2019-03-11T02:14:36.079Z,4.01
2019-03-11T02:15:36.069Z,4.04
2019-03-11T02:16:36.063Z,4.08
2019-03-11T02:17:36.053Z,4.04
2019-03-11T02:18:36.044Z,4.05
2019-03-11T02:19:36.035Z,4.06
2019-03-11T02:20:36.027Z,4.02
2019-03-11T02:21:36.020Z,4.08
2019-03-11T02:23:26.959Z,4.05
2019-03-11T02:24:24.327Z,3.99
2019-03-11T02:25:24.319Z,3.91
2019-03-11T02:26:24.311Z,3.99
2019-03-11T02:27:24.301Z,3.96
2019-03-11T02:28:24.294Z,3.96
2019-03-11T02:29:24.286Z,3.98
2019-03-11T02:30:24.285Z,3.88
2019-03-11T02:31:24.273Z,3.96
2019-03-11T02:32:24.273Z,3.78
2019-03-11T02:33:24.251Z,3.81
2019-03-11T02:34:24.250Z,3.78
2019-03-11T02:35:24.240Z,3.91
2019-03-11T02:36:24.227Z,3.78
2019-03-11T02:37:24.218Z,3.77
2019-03-11T02:38:24.211Z,3.80
2019-03-11T02:39:24.201Z,3.78
2019-03-11T02:40:24.195Z,3.80
2019-03-11T02:41:24.185Z,3.86
2019-03-11T02:42:24.177Z,3.87
2019-03-11T02:43:24.167Z,3.81
2019-03-11T02:44:24.158Z,3.94
2019-03-11T02:45:24.149Z,3.91
2019-03-11T02:46:24.142Z,3.96
2019-03-11T02:47:24.133Z,3.95
2019-03-11T02:48:24.126Z,3.92
2019-03-11T02:49:24.120Z,3.88
2019-03-11T02:50:24.121Z,3.94
2019-03-11T02:51:24.098Z,3.83
2019-03-11T02:52:24.093Z,3.86
2019-03-11T02:53:24.082Z,3.95
2019-03-11T02:54:24.076Z,3.95
2019-03-11T02:55:24.063Z,3.86
2019-03-11T02:56:24.056Z,3.96
2019-03-11T02:57:24.050Z,3.87
2019-03-11T02:58:24.039Z,3.91
2019-03-11T02:59:24.030Z,3.98
2019-03-11T03:00:24.028Z,3.98
2019-03-11T03:01:24.015Z,3.96
2019-03-11T03:02:24.039Z,3.94
2019-03-11T03:03:23.996Z,3.96
2019-03-11T03:04:23.988Z,3.96
2019-03-11T03:05:23.980Z,3.94
2019-03-11T03:06:23.971Z,3.87
2019-03-11T03:07:23.962Z,3.92
2019-03-11T03:08:23.955Z,3.92
2019-03-11T03:09:23.944Z,3.96
2019-03-11T03:10:23.937Z,3.81
2019-03-11T03:11:23.932Z,3.88
2019-03-11T03:12:23.922Z,3.94
2019-03-11T03:13:23.912Z,3.96
2019-03-11T03:14:23.907Z,3.96
2019-03-11T03:15:23.893Z,3.81
2019-03-11T03:16:23.890Z,3.87
2019-03-11T03:17:23.877Z,3.84
2019-03-11T03:18:23.872Z,3.86
2019-03-11T03:19:23.861Z,3.94
2019-03-11T03:20:23.851Z,3.95
2019-03-11T03:21:23.843Z,3.98
2019-03-11T03:22:23.836Z,3.96
2019-03-11T03:23:23.824Z,3.78
2019-03-11T03:24:23.909Z,3.87
2019-03-11T03:25:34.038Z,3.86
2019-03-11T03:26:23.800Z,3.96
2019-03-11T03:27:23.792Z,3.91
2019-03-11T03:28:23.786Z,3.95
2019-03-11T03:29:23.774Z,3.94
2019-03-11T03:30:23.765Z,3.99
2019-03-11T03:31:23.769Z,3.94
2019-03-11T03:32:23.751Z,3.96
2019-03-11T03:33:23.753Z,3.84
2019-03-11T03:34:23.738Z,3.84
2019-03-11T03:35:23.780Z,3.86
2019-03-11T03:36:23.714Z,3.83
2019-03-11T03:37:23.704Z,3.83
2019-03-11T03:38:30.538Z,3.77
2019-03-11T03:39:23.689Z,3.74
2019-03-11T03:40:23.680Z,3.80
2019-03-11T03:41:23.671Z,3.74
2019-03-11T03:42:23.665Z,3.69
2019-03-11T03:43:23.654Z,3.73
2019-03-11T03:44:23.653Z,3.77
2019-03-11T03:45:23.650Z,3.77
2019-03-11T03:46:23.627Z,3.76
2019-03-11T03:47:23.621Z,3.83
2019-03-11T03:48:23.623Z,3.81
2019-03-11T03:49:23.622Z,3.83
2019-03-11T03:50:23.594Z,3.87
2019-03-11T03:51:23.590Z,3.81
2019-03-11T03:52:23.577Z,3.83
2019-03-11T03:53:23.575Z,3.92
2019-03-11T03:54:23.558Z,3.94
2019-03-11T03:55:23.563Z,3.86
2019-03-11T03:56:23.543Z,3.95
2019-03-11T03:57:23.532Z,3.92
2019-03-11T03:58:23.526Z,3.92
2019-03-11T03:59:23.517Z,3.95
2019-03-11T04:00:23.521Z,3.96
2019-03-11T04:01:23.501Z,3.96
2019-03-11T04:02:23.496Z,3.95
2019-03-11T04:03:23.482Z,3.98
2019-03-11T04:04:23.560Z,3.88
2019-03-11T04:05:23.468Z,3.86
2019-03-11T04:06:23.458Z,3.94
2019-03-11T04:07:23.449Z,3.94
2019-03-11T04:08:23.445Z,3.91
2019-03-11T04:09:23.433Z,3.94
2019-03-11T04:10:23.426Z,3.95
2019-03-11T04:11:23.415Z,3.96
2019-03-11T04:12:23.413Z,3.96
2019-03-11T04:13:23.398Z,3.96
2019-03-11T04:14:23.402Z,3.91
2019-03-11T04:15:23.381Z,3.92
2019-03-11T04:16:23.373Z,3.86
2019-03-11T04:17:23.371Z,3.83
2019-03-11T04:18:23.356Z,3.94
2019-03-11T04:19:23.361Z,3.95
2019-03-11T04:20:23.416Z,3.95
2019-03-11T04:21:23.333Z,3.95
2019-03-11T04:22:23.325Z,3.96
2019-03-11T04:23:23.314Z,3.94
2019-03-11T04:24:23.305Z,3.91
2019-03-11T04:25:23.300Z,3.92
2019-03-11T04:26:23.290Z,3.96
2019-03-11T04:27:23.286Z,3.94
2019-03-11T04:28:23.272Z,3.87
2019-03-11T04:29:23.264Z,3.95
2019-03-11T04:30:23.259Z,3.98
2019-03-11T04:31:23.252Z,3.96
2019-03-11T04:32:23.239Z,3.95
2019-03-11T04:33:23.230Z,3.92
2019-03-11T04:34:23.225Z,3.91
2019-03-11T04:35:23.213Z,3.87
2019-03-11T04:36:23.204Z,3.77
2019-03-11T04:37:23.196Z,3.84
2019-03-11T04:38:23.189Z,3.80
2019-03-11T04:39:23.182Z,3.76
2019-03-11T04:40:23.171Z,3.83
2019-03-11T04:41:23.164Z,3.76
2019-03-11T04:42:23.155Z,3.70
2019-03-11T04:43:23.148Z,3.77
2019-03-11T04:44:23.136Z,3.78
2019-03-11T04:45:23.129Z,3.84
2019-03-11T04:46:23.122Z,3.80
2019-03-11T04:47:23.112Z,3.83
2019-03-11T04:48:23.123Z,3.78
2019-03-11T04:49:23.096Z,3.76
2019-03-11T04:50:23.091Z,3.76
2019-03-11T04:51:23.077Z,3.66
2019-03-11T04:52:23.069Z,3.65
2019-03-11T04:53:23.062Z,3.65
2019-03-11T04:54:23.055Z,3.73
2019-03-11T04:55:23.044Z,3.69
2019-03-11T04:56:23.036Z,3.69
2019-03-11T04:57:23.596Z,3.63
2019-03-11T04:58:23.020Z,3.63
2019-03-11T04:59:23.009Z,3.66
2019-03-11T05:00:23.002Z,3.66
2019-03-11T05:01:22.994Z,3.69
2019-03-11T05:02:22.985Z,3.65
2019-03-11T05:03:22.975Z,3.69
2019-03-11T05:04:22.968Z,3.65
2019-03-11T05:05:22.960Z,3.56
2019-03-11T05:06:22.951Z,3.58
2019-03-11T05:07:22.942Z,3.62
2019-03-11T05:08:22.934Z,3.59
2019-03-11T05:09:22.926Z,3.66
2019-03-11T05:10:22.917Z,3.63
2019-03-11T05:11:22.907Z,3.66
2019-03-11T05:12:22.899Z,3.65
2019-03-11T05:13:22.890Z,3.63
2019-03-11T05:14:22.882Z,3.74
2019-03-11T05:15:22.877Z,3.73
2019-03-11T05:16:22.868Z,3.77
2019-03-11T05:17:22.857Z,3.76
2019-03-11T05:18:22.848Z,3.77
2019-03-11T05:19:22.839Z,3.74
2019-03-11T05:20:22.832Z,3.70
2019-03-11T05:21:22.822Z,3.74
2019-03-11T05:22:22.814Z,3.73
2019-03-11T05:23:22.804Z,3.78
2019-03-11T05:24:22.796Z,3.68
2019-03-11T05:25:22.788Z,3.66
2019-03-11T05:26:22.779Z,3.65
2019-03-11T05:27:22.770Z,3.68
2019-03-11T05:28:22.763Z,3.63
2019-03-11T05:29:22.768Z,3.70
2019-03-11T05:30:22.744Z,3.66
2019-03-11T05:31:22.735Z,3.68
2019-03-11T05:32:22.728Z,3.62
2019-03-11T05:33:22.722Z,3.68
2019-03-11T05:34:22.712Z,3.65
2019-03-11T05:35:22.716Z,3.69
2019-03-11T05:36:22.695Z,3.68
2019-03-11T05:37:22.685Z,3.73
2019-03-11T05:38:22.676Z,3.66
2019-03-11T05:39:22.669Z,3.65
2019-03-11T05:40:22.659Z,3.68
2019-03-11T05:41:22.652Z,3.66
2019-03-11T05:42:22.642Z,3.63
2019-03-11T05:43:22.633Z,3.60
2019-03-11T05:44:22.629Z,3.63
2019-03-11T05:45:22.617Z,3.62
2019-03-11T05:46:22.609Z,3.63
2019-03-11T05:47:22.601Z,3.68
2019-03-11T05:48:22.592Z,3.60
2019-03-11T05:49:22.584Z,3.66
2019-03-11T05:50:22.575Z,3.68
2019-03-11T05:51:31.038Z,3.63
2019-03-11T05:52:22.558Z,3.76
2019-03-11T05:53:22.549Z,3.77
2019-03-11T05:54:22.543Z,3.84
2019-03-11T05:55:22.532Z,3.87
2019-03-11T05:56:22.523Z,3.80
2019-03-11T05:57:22.517Z,3.87
2019-03-11T05:58:22.507Z,3.81
2019-03-11T05:59:22.499Z,3.87
2019-03-11T06:00:22.509Z,3.83
2019-03-11T06:01:22.482Z,3.74
2019-03-11T06:02:22.472Z,3.77
2019-03-11T06:03:22.464Z,3.78
2019-03-11T06:04:22.455Z,3.73
2019-03-11T06:05:22.446Z,3.73
2019-03-11T06:06:22.438Z,3.66
2019-03-11T06:07:22.430Z,3.65
2019-03-11T06:08:22.422Z,3.69
2019-03-11T06:09:22.414Z,3.65
2019-03-11T06:10:22.404Z,3.63
2019-03-11T06:11:22.396Z,3.53
2019-03-11T06:12:22.387Z,3.55
2019-03-11T06:13:22.379Z,3.44
2019-03-11T06:14:22.373Z,3.47
2019-03-11T06:15:22.362Z,3.47
2019-03-11T06:16:22.352Z,3.44
2019-03-11T06:17:22.345Z,3.37
2019-03-11T06:18:22.338Z,3.50
2019-03-11T06:19:22.327Z,3.36
2019-03-11T06:20:22.318Z,3.42
2019-03-11T06:21:22.311Z,3.32
2019-03-11T06:22:22.303Z,3.31
2019-03-11T06:23:22.292Z,3.31
2019-03-11T06:24:22.283Z,3.34
2019-03-11T06:25:22.279Z,3.31
2019-03-11T06:26:22.266Z,3.31
2019-03-11T06:27:22.475Z,3.32
2019-03-11T06:28:22.252Z,3.32
2019-03-11T06:29:30.112Z,3.37
2019-03-11T06:30:22.237Z,3.47
2019-03-11T06:31:22.223Z,3.41
2019-03-11T06:32:22.216Z,3.41
2019-03-11T06:33:22.210Z,3.44
2019-03-11T06:34:22.198Z,3.37
2019-03-11T06:35:22.198Z,3.42
2019-03-11T06:36:22.179Z,3.47
2019-03-11T06:37:22.172Z,3.53
2019-03-11T06:38:22.163Z,3.50
2019-03-11T06:39:22.154Z,3.45
2019-03-11T06:40:22.146Z,3.55
2019-03-11T06:41:22.141Z,3.55
2019-03-11T06:42:22.129Z,3.47
2019-03-11T06:43:22.126Z,3.47
2019-03-11T06:44:22.115Z,3.44
2019-03-11T06:45:22.104Z,3.36
2019-03-11T06:46:22.096Z,3.34
2019-03-11T06:47:22.086Z,3.31
2019-03-11T06:48:22.077Z,3.28
2019-03-11T06:49:22.073Z,3.32
2019-03-11T06:50:22.060Z,3.22
2019-03-11T06:51:22.053Z,3.18
2019-03-11T06:52:22.044Z,3.18
2019-03-11T06:53:22.057Z,3.22
2019-03-11T06:54:22.027Z,3.23
2019-03-11T06:55:22.023Z,3.21
2019-03-11T06:56:22.008Z,3.25
2019-03-11T06:57:22.002Z,3.16
2019-03-11T06:58:21.993Z,3.34
2019-03-11T06:59:21.983Z,3.31
2019-03-11T07:00:21.989Z,3.37
2019-03-11T07:01:21.967Z,3.34
2019-03-11T07:02:21.958Z,3.41
2019-03-11T07:03:21.950Z,3.53
2019-03-11T07:04:21.941Z,3.56
2019-03-11T07:05:21.932Z,3.44
2019-03-11T07:06:21.925Z,3.55
2019-03-11T07:07:21.917Z,3.56
2019-03-11T07:08:21.906Z,3.56
2019-03-11T07:09:22.009Z,3.58
2019-03-11T07:10:21.891Z,3.63
2019-03-11T07:11:21.881Z,3.63
2019-03-11T07:12:21.873Z,3.66
2019-03-11T07:13:21.867Z,3.65
2019-03-11T07:14:21.857Z,3.69
2019-03-11T07:15:21.846Z,3.55
2019-03-11T07:16:21.846Z,3.65
2019-03-11T07:17:21.835Z,3.59
2019-03-11T07:18:21.825Z,3.53
2019-03-11T07:19:21.814Z,3.56
2019-03-11T07:20:21.810Z,3.56
2019-03-11T07:21:21.797Z,3.41
2019-03-11T07:22:21.790Z,3.45
2019-03-11T07:23:21.779Z,3.51
2019-03-11T07:24:21.771Z,3.44
2019-03-11T07:25:21.763Z,3.29
2019-03-11T07:26:21.755Z,3.32
2019-03-11T07:27:21.745Z,3.34
2019-03-11T07:28:21.736Z,3.29
2019-03-11T07:29:21.731Z,3.32
2019-03-11T07:30:21.720Z,3.36
2019-03-11T07:31:21.710Z,3.32
2019-03-11T07:32:21.714Z,3.31
2019-03-11T07:33:21.695Z,3.32
2019-03-11T07:34:21.685Z,3.51
2019-03-11T07:35:21.675Z,3.45
2019-03-11T07:36:21.710Z,3.47
2019-03-11T07:37:21.758Z,3.50
2019-03-11T07:38:21.650Z,3.53
2019-03-11T07:39:21.642Z,3.48
2019-03-11T07:40:29.589Z,3.53
2019-03-11T07:41:21.627Z,3.58
2019-03-11T07:42:21.616Z,3.55
2019-03-11T07:43:21.607Z,3.51
2019-03-11T07:44:21.598Z,3.42
2019-03-11T07:45:21.591Z,3.55
2019-03-11T07:46:21.581Z,3.51
2019-03-11T07:47:21.573Z,3.51
2019-03-11T07:48:21.564Z,3.50
2019-03-11T07:49:21.556Z,3.37
2019-03-11T07:50:21.547Z,3.34
2019-03-11T07:51:21.541Z,3.36
2019-03-11T07:52:21.530Z,3.34
2019-03-11T07:53:21.521Z,3.44
2019-03-11T07:54:21.514Z,3.36
2019-03-11T07:55:21.503Z,3.37
2019-03-11T07:56:21.495Z,3.47
2019-03-11T07:57:21.489Z,3.47
2019-03-11T07:58:21.479Z,3.45
2019-03-11T07:59:21.470Z,3.48
2019-03-11T08:00:21.460Z,3.36
2019-03-11T08:01:21.453Z,3.31
2019-03-11T08:02:21.444Z,3.31
2019-03-11T08:03:21.435Z,3.19
2019-03-11T08:04:21.430Z,3.16
2019-03-11T08:05:21.419Z,3.13
2019-03-11T08:06:21.414Z,3.08
2019-03-11T08:07:21.400Z,2.98
2019-03-11T08:08:21.393Z,2.92
2019-03-11T08:09:21.385Z,2.79
2019-03-11T08:10:21.376Z,2.83
2019-03-11T08:11:21.367Z,2.80
2019-03-11T08:12:21.359Z,2.83
2019-03-11T08:13:21.350Z,2.89
2019-03-11T08:14:21.342Z,2.89
2019-03-11T08:15:21.332Z,2.85
2019-03-11T08:16:21.323Z,2.95
2019-03-11T08:17:21.317Z,2.90
2019-03-11T08:18:21.307Z,3.05
2019-03-11T08:19:21.301Z,3.04
2019-03-11T08:20:21.288Z,3.16
2019-03-11T08:21:21.281Z,3.23
2019-03-11T08:22:21.272Z,3.22
2019-03-11T08:23:21.280Z,3.18
2019-03-11T08:24:21.261Z,3.18
2019-03-11T08:25:21.268Z,3.19
2019-03-11T08:26:21.239Z,3.23
2019-03-11T08:27:21.229Z,3.29
2019-03-11T08:28:21.224Z,3.31
2019-03-11T08:29:21.213Z,3.44
2019-03-11T08:30:21.205Z,3.41
2019-03-11T08:31:21.196Z,3.40
2019-03-11T08:32:21.188Z,3.58
2019-03-11T08:33:21.181Z,3.59
2019-03-11T08:34:21.171Z,3.60
2019-03-11T08:35:21.163Z,3.66
2019-03-11T08:36:21.154Z,3.66
2019-03-11T08:37:21.147Z,3.68
2019-03-11T08:38:21.138Z,3.77
2019-03-11T08:39:21.130Z,3.80
2019-03-11T08:40:21.126Z,3.84
2019-03-11T08:41:21.113Z,3.84
2019-03-11T08:42:21.104Z,3.95
2019-03-11T08:43:21.114Z,3.92
2019-03-11T08:44:21.088Z,3.98
2019-03-11T08:45:21.079Z,4.04
2019-03-11T08:46:21.071Z,4.04
2019-03-11T08:47:21.062Z,4.13
2019-03-11T08:48:21.054Z,4.19
2019-03-11T08:49:21.070Z,4.22
2019-03-11T08:50:21.040Z,4.22
2019-03-11T08:51:21.029Z,4.24
2019-03-11T08:52:21.071Z,4.26
2019-03-11T08:53:21.014Z,4.28
2019-03-11T08:54:21.006Z,4.23
2019-03-11T08:55:20.998Z,4.19
2019-03-11T08:56:20.989Z,4.31
2019-03-11T08:57:21.006Z,4.40
2019-03-11T08:58:20.974Z,4.62
2019-03-11T08:59:20.963Z,4.70
2019-03-11T09:00:20.957Z,4.84
2019-03-11T09:01:20.948Z,4.74
2019-03-11T09:02:20.941Z,4.82
2019-03-11T09:03:20.932Z,4.84
2019-03-11T09:04:20.924Z,4.74
2019-03-11T09:05:20.920Z,4.84
2019-03-11T09:06:20.909Z,4.77
2019-03-11T09:07:20.899Z,4.67
2019-03-11T09:08:20.898Z,4.62
2019-03-11T09:09:20.885Z,4.63
2019-03-11T09:10:20.878Z,4.52
2019-03-11T09:11:20.871Z,4.60
2019-03-11T09:12:20.865Z,4.45
2019-03-11T09:13:20.854Z,4.38
2019-03-11T09:14:20.848Z,4.37
2019-03-11T09:15:20.837Z,4.38
2019-03-11T09:16:20.831Z,4.37
2019-03-11T09:17:20.827Z,4.28
2019-03-11T09:18:20.816Z,4.40
2019-03-11T09:19:20.807Z,4.24
2019-03-11T09:20:20.799Z,4.35
2019-03-11T09:21:20.792Z,4.35
2019-03-11T09:22:20.787Z,4.37
2019-03-11T09:23:20.776Z,4.40
2019-03-11T09:24:20.767Z,4.34
2019-03-11T09:25:20.758Z,4.28
2019-03-11T09:26:20.752Z,4.35
2019-03-11T09:27:20.743Z,4.35
2019-03-11T09:28:20.756Z,4.42
2019-03-11T09:29:20.728Z,4.53
2019-03-11T09:30:20.718Z,4.60
2019-03-11T09:31:20.710Z,4.58
2019-03-11T09:32:20.704Z,4.63
2019-03-11T09:33:20.701Z,4.66
2019-03-11T09:34:20.689Z,4.71
2019-03-11T09:35:20.679Z,4.68
2019-03-11T09:36:20.672Z,4.66
2019-03-11T09:37:20.664Z,4.70
2019-03-11T09:38:20.657Z,4.80
2019-03-11T09:39:20.647Z,4.63
2019-03-11T09:40:20.639Z,4.68
2019-03-11T09:41:20.633Z,4.74
2019-03-11T09:42:20.626Z,4.80
2019-03-11T09:43:20.617Z,4.87
2019-03-11T09:44:20.610Z,5.04
2019-03-11T09:45:20.603Z,5.15
2019-03-11T09:46:20.600Z,5.18
2019-03-11T09:47:20.587Z,5.33
2019-03-11T09:48:20.582Z,5.38
2019-03-11T09:49:20.573Z,5.43
2019-03-11T09:50:20.565Z,5.18
2019-03-11T09:51:20.562Z,5.11
2019-03-11T09:52:20.549Z,5.05
2019-03-11T09:53:20.542Z,5.11
2019-03-11T09:54:20.533Z,5.02
2019-03-11T09:55:20.525Z,5.00
2019-03-11T09:56:20.519Z,4.99
2019-03-11T09:57:20.512Z,5.04
2019-03-11T09:58:20.504Z,5.10
2019-03-11T09:59:20.494Z,5.11
2019-03-11T10:00:20.489Z,5.02
2019-03-11T10:01:20.480Z,5.02
2019-03-11T10:02:20.473Z,5.00
2019-03-11T10:03:20.465Z,4.93
2019-03-11T10:04:20.458Z,4.96
2019-03-11T10:05:20.451Z,4.93
2019-03-11T10:06:20.444Z,4.90
2019-03-11T10:07:20.435Z,4.93
2019-03-11T10:08:20.429Z,4.92
2019-03-11T10:09:20.420Z,4.94
2019-03-11T10:10:20.412Z,5.11
2019-03-11T10:11:20.405Z,5.17
2019-03-11T10:12:20.399Z,5.26
2019-03-11T10:13:20.390Z,5.82
2019-03-11T10:14:20.383Z,6.17
2019-03-11T10:15:20.375Z,6.01
2019-03-11T10:16:20.369Z,5.94
2019-03-11T10:17:20.360Z,5.94
2019-03-11T10:18:20.354Z,6.05
2019-03-11T10:19:20.345Z,7.28
2019-03-11T10:20:20.339Z,7.83
2019-03-11T10:21:20.330Z,8.03
2019-03-11T10:22:20.324Z,8.12
2019-03-11T10:23:31.432Z,7.43
2019-03-11T10:24:20.310Z,7.18
2019-03-11T10:25:20.304Z,7.15
2019-03-11T10:26:20.301Z,7.17
2019-03-11T10:27:20.291Z,7.25
2019-03-11T10:28:20.284Z,6.96
2019-03-11T10:29:20.280Z,6.67
2019-03-11T10:30:20.273Z,6.42
2019-03-11T10:31:20.266Z,6.20
2019-03-11T10:32:20.260Z,6.07
2019-03-11T10:33:20.269Z,5.98
2019-03-11T10:34:20.251Z,6.01
2019-03-11T10:35:31.418Z,5.98
2019-03-11T10:36:20.234Z,5.98
2019-03-11T10:37:20.229Z,6.01
2019-03-11T10:38:20.222Z,6.24
2019-03-11T10:39:20.215Z,6.64
2019-03-11T10:40:20.211Z,6.77
2019-03-11T10:41:20.203Z,6.75
2019-03-11T10:42:20.196Z,6.96
2019-03-11T10:43:20.191Z,7.03
2019-03-11T10:44:20.184Z,7.10
2019-03-11T10:46:20.172Z,7.38
2019-03-11T10:47:20.166Z,6.96
2019-03-11T10:48:20.177Z,7.15
2019-03-11T10:49:20.158Z,7.43
2019-03-11T10:50:20.150Z,7.73
2019-03-11T10:51:20.154Z,8.01
2019-03-11T10:52:20.136Z,8.24
2019-03-11T10:53:20.129Z,8.30
2019-03-11T10:54:20.123Z,8.20
2019-03-11T10:55:20.120Z,8.61
2019-03-11T10:56:20.115Z,8.81
2019-03-11T10:57:20.109Z,8.94
2019-03-11T10:58:20.102Z,8.66
2019-03-11T10:59:20.098Z,8.00
2019-03-11T11:00:20.092Z,7.91
2019-03-11T11:01:20.086Z,7.80
2019-03-11T11:02:20.081Z,7.98
2019-03-11T11:03:20.076Z,8.03
2019-03-11T11:04:20.070Z,7.77
2019-03-11T11:05:20.071Z,7.60
2019-03-11T11:06:20.060Z,7.56
2019-03-11T11:07:20.055Z,7.39
2019-03-11T11:08:20.049Z,7.54
2019-03-11T11:09:20.044Z,7.47
2019-03-11T11:10:20.042Z,7.54
2019-03-11T11:11:20.035Z,7.57
2019-03-11T11:12:20.030Z,7.54
2019-03-11T11:13:20.025Z,7.54
2019-03-11T11:14:20.020Z,7.35
2019-03-11T11:15:20.015Z,7.53
2019-03-11T11:16:20.008Z,7.39
2019-03-11T11:17:20.002Z,7.40
2019-03-11T11:18:19.998Z,7.18
2019-03-11T11:19:19.992Z,7.18
2019-03-11T11:20:19.987Z,7.20
2019-03-11T11:21:19.980Z,7.18
2019-03-11T11:22:19.976Z,7.18
2019-03-11T11:23:19.969Z,7.06
2019-03-11T11:24:19.964Z,6.88
2019-03-11T11:25:19.965Z,6.77
2019-03-11T11:26:19.952Z,6.79
2019-03-11T11:27:19.947Z,6.66
2019-03-11T11:28:19.940Z,6.60
2019-03-11T11:29:19.934Z,6.31
2019-03-11T11:30:19.930Z,6.42
2019-03-11T11:31:19.923Z,6.31
2019-03-11T11:32:19.917Z,6.38
2019-03-11T11:33:19.934Z,6.35
2019-03-11T11:34:19.904Z,6.38
2019-03-11T11:35:19.898Z,6.51
2019-03-11T11:36:19.892Z,6.62
2019-03-11T11:37:19.887Z,6.75
2019-03-11T11:38:19.880Z,6.89
2019-03-11T11:39:19.872Z,7.24
2019-03-11T11:40:19.868Z,7.73
2019-03-11T11:41:19.860Z,7.93
2019-03-11T11:42:19.859Z,8.16
2019-03-11T11:43:19.848Z,8.20
2019-03-11T11:44:19.843Z,8.36
2019-03-11T11:45:19.837Z,8.28
2019-03-11T11:46:19.833Z,8.33
2019-03-11T11:47:19.825Z,8.24
2019-03-11T11:48:19.820Z,8.28
2019-03-11T11:49:19.816Z,8.58
2019-03-11T11:50:19.808Z,8.49
2019-03-11T11:51:19.803Z,8.00
2019-03-11T11:52:19.797Z,7.90
2019-03-11T11:53:19.792Z,7.82
2019-03-11T11:54:19.787Z,7.73
2019-03-11T11:55:19.786Z,7.72
2019-03-11T11:56:19.775Z,7.38
2019-03-11T11:57:19.770Z,7.39
2019-03-11T11:58:19.763Z,7.35
2019-03-11T11:59:19.821Z,7.20
2019-03-11T12:00:19.754Z,7.21
2019-03-11T12:01:19.746Z,7.13
2019-03-11T12:02:19.741Z,7.14
2019-03-11T12:03:19.735Z,7.05
2019-03-11T12:04:19.730Z,7.15
2019-03-11T12:05:19.723Z,7.15
2019-03-11T12:06:19.718Z,7.18
2019-03-11T12:07:19.741Z,7.21
2019-03-11T12:08:19.713Z,7.35
2019-03-11T12:09:19.706Z,7.39
2019-03-11T12:10:19.692Z,7.53
2019-03-11T12:11:19.685Z,7.57
2019-03-11T12:12:19.680Z,7.61
2019-03-11T12:13:19.676Z,7.63
2019-03-11T12:14:19.670Z,7.77
2019-03-11T12:15:19.662Z,7.83
2019-03-11T12:16:19.655Z,8.01
2019-03-11T12:17:19.650Z,7.94
2019-03-11T12:18:19.645Z,7.94
2019-03-11T12:19:19.636Z,7.93
2019-03-11T12:20:19.637Z,8.06
2019-03-11T12:21:19.625Z,8.23
2019-03-11T12:22:19.620Z,8.28
2019-03-11T12:23:19.614Z,8.30
2019-03-11T12:24:19.607Z,8.19
2019-03-11T12:25:19.603Z,8.28
2019-03-11T12:26:19.597Z,8.09
2019-03-11T12:27:19.594Z,8.27
2019-03-11T12:28:19.582Z,8.15
2019-03-11T12:29:19.577Z,8.26
2019-03-11T12:30:19.573Z,8.16
2019-03-11T12:31:21.655Z,8.08
2019-03-11T12:32:19.558Z,8.05
2019-03-11T12:33:20.412Z,7.80
2019-03-11T12:34:19.547Z,7.85
2019-03-11T12:35:19.542Z,7.82
2019-03-11T12:36:19.536Z,7.70
2019-03-11T12:37:19.544Z,7.76
2019-03-11T12:38:19.526Z,7.79
2019-03-11T12:39:19.519Z,8.00
2019-03-11T12:40:19.583Z,8.03
2019-03-11T12:41:19.507Z,8.27
2019-03-11T12:42:19.503Z,8.51
2019-03-11T12:43:19.495Z,8.52
2019-03-11T12:44:19.489Z,8.23
2019-03-11T12:45:19.484Z,8.12
2019-03-11T12:46:19.477Z,7.98
2019-03-11T12:47:19.471Z,8.30
2019-03-11T12:48:19.464Z,8.23
2019-03-11T12:49:19.462Z,8.19
2019-03-11T12:50:19.452Z,8.31
2019-03-11T12:51:19.447Z,8.30
2019-03-11T12:52:19.453Z,8.26
2019-03-11T12:53:19.437Z,8.30
2019-03-11T12:54:19.435Z,8.10
2019-03-11T12:55:21.377Z,8.06
2019-03-11T12:56:19.418Z,8.06
2019-03-11T12:57:19.414Z,8.20
2019-03-11T12:58:19.406Z,8.03
2019-03-11T12:59:19.403Z,8.24
2019-03-11T13:00:19.397Z,8.19
2019-03-11T13:01:19.390Z,8.18
2019-03-11T13:02:19.384Z,8.26
2019-03-11T13:03:19.377Z,8.16
2019-03-11T13:04:19.372Z,8.30
2019-03-11T13:05:19.370Z,8.28
2019-03-11T13:06:19.362Z,8.20
2019-03-11T13:07:19.354Z,8.19
2019-03-11T13:08:19.349Z,8.20
2019-03-11T13:09:19.344Z,8.12
2019-03-11T13:10:19.338Z,8.13
2019-03-11T13:11:19.331Z,8.06
2019-03-11T13:12:19.326Z,8.03
2019-03-11T13:13:19.413Z,8.18
2019-03-11T13:14:19.315Z,8.10
2019-03-11T13:15:19.309Z,8.13
2019-03-11T13:16:19.303Z,8.18
2019-03-11T13:17:19.298Z,8.34
2019-03-11T13:18:19.291Z,8.34
2019-03-11T13:19:19.285Z,8.45
2019-03-11T13:20:19.280Z,8.20
2019-03-11T13:21:19.273Z,8.18